sensor_id;sensor_type;location;lat;lon;timestamp;temperature;humidity
75262;DHT22;63859;51.064;4.580;2022-11-15T00:00:25;9.40;99.90
75262;DHT22;63859;51.064;4.580;2022-11-15T00:02:54;9.40;99.90
75262;DHT22;63859;51.064;4.580;2022-11-15T00:05:20;9.40;99.90
75262;DHT22;63859;51.064;4.580;2022-11-15T00:07:46;9.50;99.90
75262;DHT22;63859;51.064;4.580;2022-11-15T00:10:12;9.50;99.90
75262;DHT22;63859;51.064;4.580;2022-11-15T00:12:37;9.50;99.90
75262;DHT22;63859;51.064;4.580;2022-11-15T00:15:03;9.50;99.90
75262;DHT22;63859;51.064;4.580;2022-11-15T00:17:29;9.60;99.90
75262;DHT22;63859;51.064;4.580;2022-11-15T00:19:55;9.60;99.90
75262;DHT22;63859;51.064;4.580;2022-11-15T00:22:21;9.60;99.90
75262;DHT22;63859;51.064;4.580;2022-11-15T00:24:47;9.70;99.90
75262;DHT22;63859;51.064;4.580;2022-11-15T00:27:12;9.70;99.90
75262;DHT22;63859;51.064;4.580;2022-11-15T00:29:38;9.70;99.90
75262;DHT22;63859;51.064;4.580;2022-11-15T00:32:11;9.70;99.90
75262;DHT22;63859;51.064;4.580;2022-11-15T00:34:37;9.80;99.90
75262;DHT22;63859;51.064;4.580;2022-11-15T00:37:02;9.80;99.90
75262;DHT22;63859;51.064;4.580;2022-11-15T00:39:28;9.80;99.90
75262;DHT22;63859;51.064;4.580;2022-11-15T00:41:54;9.80;99.90
75262;DHT22;63859;51.064;4.580;2022-11-15T00:44:19;9.80;99.90
75262;DHT22;63859;51.064;4.580;2022-11-15T00:46:45;9.90;99.90
75262;DHT22;63859;51.064;4.580;2022-11-15T00:49:10;9.90;99.90
75262;DHT22;63859;51.064;4.580;2022-11-15T00:51:36;9.90;99.90
75262;DHT22;63859;51.064;4.580;2022-11-15T00:54:02;9.90;99.90
75262;DHT22;63859;51.064;4.580;2022-11-15T00:56:27;10.00;99.90
75262;DHT22;63859;51.064;4.580;2022-11-15T00:58:53;10.00;99.90
75262;DHT22;63859;51.064;4.580;2022-11-15T01:01:19;10.00;99.90
75262;DHT22;63859;51.064;4.580;2022-11-15T01:03:44;10.00;99.90
75262;DHT22;63859;51.064;4.580;2022-11-15T01:06:10;10.00;99.90
75262;DHT22;63859;51.064;4.580;2022-11-15T01:08:39;10.10;99.90
75262;DHT22;63859;51.064;4.580;2022-11-15T01:11:07;10.20;99.90
75262;DHT22;63859;51.064;4.580;2022-11-15T01:13:35;10.30;99.90
75262;DHT22;63859;51.064;4.580;2022-11-15T01:16:10;10.30;99.90
75262;DHT22;63859;51.064;4.580;2022-11-15T01:18:37;10.40;99.90
75262;DHT22;63859;51.064;4.580;2022-11-15T01:21:08;10.40;99.90
75262;DHT22;63859;51.064;4.580;2022-11-15T01:23:34;10.50;99.90
75262;DHT22;63859;51.064;4.580;2022-11-15T01:26:01;10.50;99.90
75262;DHT22;63859;51.064;4.580;2022-11-15T01:28:32;10.60;99.90
75262;DHT22;63859;51.064;4.580;2022-11-15T01:30:59;10.60;99.90
75262;DHT22;63859;51.064;4.580;2022-11-15T01:33:25;10.60;99.90
75262;DHT22;63859;51.064;4.580;2022-11-15T01:35:51;10.60;99.90
75262;DHT22;63859;51.064;4.580;2022-11-15T01:38:16;10.70;99.90
75262;DHT22;63859;51.064;4.580;2022-11-15T01:40:42;10.70;99.90
75262;DHT22;63859;51.064;4.580;2022-11-15T01:43:21;10.90;99.90
75262;DHT22;63859;51.064;4.580;2022-11-15T01:46:15;10.90;99.90
75262;DHT22;63859;51.064;4.580;2022-11-15T01:48:39;11.00;99.90
75262;DHT22;63859;51.064;4.580;2022-11-15T01:51:08;11.00;99.90
75262;DHT22;63859;51.064;4.580;2022-11-15T01:53:36;11.10;99.90
75262;DHT22;63859;51.064;4.580;2022-11-15T01:56:05;11.10;99.90
75262;DHT22;63859;51.064;4.580;2022-11-15T01:58:32;11.00;99.90
75262;DHT22;63859;51.064;4.580;2022-11-15T02:00:58;11.20;99.90
75262;DHT22;63859;51.064;4.580;2022-11-15T02:03:29;11.20;99.90
75262;DHT22;63859;51.064;4.580;2022-11-15T02:05:57;11.20;99.90
75262;DHT22;63859;51.064;4.580;2022-11-15T02:08:23;11.20;99.90
75262;DHT22;63859;51.064;4.580;2022-11-15T02:10:49;11.20;99.90
75262;DHT22;63859;51.064;4.580;2022-11-15T02:13:16;11.20;99.90
75262;DHT22;63859;51.064;4.580;2022-11-15T02:18:37;11.20;99.90
75262;DHT22;63859;51.064;4.580;2022-11-15T02:29:11;11.30;99.90
75262;DHT22;63859;51.064;4.580;2022-11-15T02:39:50;11.40;99.90
75262;DHT22;63859;51.064;4.580;2022-11-15T02:42:21;11.30;99.90
75262;DHT22;63859;51.064;4.580;2022-11-15T02:45:09;11.40;99.90
75262;DHT22;63859;51.064;4.580;2022-11-15T02:47:42;11.30;99.90
75262;DHT22;63859;51.064;4.580;2022-11-15T02:50:11;11.30;99.90
75262;DHT22;63859;51.064;4.580;2022-11-15T02:52:37;11.30;99.90
75262;DHT22;63859;51.064;4.580;2022-11-15T02:55:03;11.40;99.90
75262;DHT22;63859;51.064;4.580;2022-11-15T02:57:46;11.30;99.90
75262;DHT22;63859;51.064;4.580;2022-11-15T03:00:18;11.30;99.90
75262;DHT22;63859;51.064;4.580;2022-11-15T03:09:02;11.20;99.90
75262;DHT22;63859;51.064;4.580;2022-11-15T03:11:29;11.30;99.90
75262;DHT22;63859;51.064;4.580;2022-11-15T03:14:27;11.30;99.90
75262;DHT22;63859;51.064;4.580;2022-11-15T03:19:38;11.30;99.90
75262;DHT22;63859;51.064;4.580;2022-11-15T03:22:10;11.30;99.90
75262;DHT22;63859;51.064;4.580;2022-11-15T03:24:38;11.30;99.90
75262;DHT22;63859;51.064;4.580;2022-11-15T03:27:06;11.20;99.90
75262;DHT22;63859;51.064;4.580;2022-11-15T03:29:37;11.30;99.90
75262;DHT22;63859;51.064;4.580;2022-11-15T03:32:10;11.30;99.90
75262;DHT22;63859;51.064;4.580;2022-11-15T03:35:03;11.20;99.90
75262;DHT22;63859;51.064;4.580;2022-11-15T03:40:15;11.30;99.90
75262;DHT22;63859;51.064;4.580;2022-11-15T03:42:49;11.30;99.90
75262;DHT22;63859;51.064;4.580;2022-11-15T03:45:28;11.20;99.90
75262;DHT22;63859;51.064;4.580;2022-11-15T03:48:14;11.30;99.90
75262;DHT22;63859;51.064;4.580;2022-11-15T03:50:42;11.30;99.90
75262;DHT22;63859;51.064;4.580;2022-11-15T03:53:09;11.20;99.90
75262;DHT22;63859;51.064;4.580;2022-11-15T03:55:35;11.20;99.90
75262;DHT22;63859;51.064;4.580;2022-11-15T03:58:01;11.20;99.90
75262;DHT22;63859;51.064;4.580;2022-11-15T04:00:27;11.20;99.90
75262;DHT22;63859;51.064;4.580;2022-11-15T04:02:53;11.20;99.90
75262;DHT22;63859;51.064;4.580;2022-11-15T04:05:19;11.20;99.90
75262;DHT22;63859;51.064;4.580;2022-11-15T04:07:44;11.30;99.90
75262;DHT22;63859;51.064;4.580;2022-11-15T04:10:11;11.20;99.90
75262;DHT22;63859;51.064;4.580;2022-11-15T04:12:40;11.30;99.90
75262;DHT22;63859;51.064;4.580;2022-11-15T04:15:11;11.30;99.90
75262;DHT22;63859;51.064;4.580;2022-11-15T04:17:40;11.20;99.90
75262;DHT22;63859;51.064;4.580;2022-11-15T04:22:57;11.20;99.90
75262;DHT22;63859;51.064;4.580;2022-11-15T04:25:42;11.20;99.90
75262;DHT22;63859;51.064;4.580;2022-11-15T04:28:09;11.20;99.90
75262;DHT22;63859;51.064;4.580;2022-11-15T04:30:35;11.20;99.90
75262;DHT22;63859;51.064;4.580;2022-11-15T04:33:01;11.20;99.90
75262;DHT22;63859;51.064;4.580;2022-11-15T04:35:27;11.20;99.90
75262;DHT22;63859;51.064;4.580;2022-11-15T04:37:53;11.20;99.90
75262;DHT22;63859;51.064;4.580;2022-11-15T04:40:19;11.20;99.90
75262;DHT22;63859;51.064;4.580;2022-11-15T04:42:45;11.20;99.90
75262;DHT22;63859;51.064;4.580;2022-11-15T04:45:10;11.10;99.90
75262;DHT22;63859;51.064;4.580;2022-11-15T04:47:36;11.20;99.90
75262;DHT22;63859;51.064;4.580;2022-11-15T04:50:02;11.10;99.90
75262;DHT22;63859;51.064;4.580;2022-11-15T04:52:28;11.10;99.90
75262;DHT22;63859;51.064;4.580;2022-11-15T04:54:54;11.10;99.90
75262;DHT22;63859;51.064;4.580;2022-11-15T04:57:20;11.10;99.90
75262;DHT22;63859;51.064;4.580;2022-11-15T04:59:46;11.10;99.90
75262;DHT22;63859;51.064;4.580;2022-11-15T05:02:11;11.10;99.90
75262;DHT22;63859;51.064;4.580;2022-11-15T05:04:37;11.10;99.90
75262;DHT22;63859;51.064;4.580;2022-11-15T05:07:03;11.10;99.90
75262;DHT22;63859;51.064;4.580;2022-11-15T05:09:31;11.10;99.90
75262;DHT22;63859;51.064;4.580;2022-11-15T05:11:57;11.10;99.90
75262;DHT22;63859;51.064;4.580;2022-11-15T05:14:23;11.10;99.90
75262;DHT22;63859;51.064;4.580;2022-11-15T05:16:48;11.00;99.90
75262;DHT22;63859;51.064;4.580;2022-11-15T05:19:14;11.00;99.90
75262;DHT22;63859;51.064;4.580;2022-11-15T05:21:39;11.00;99.90
75262;DHT22;63859;51.064;4.580;2022-11-15T05:24:05;11.00;99.90
75262;DHT22;63859;51.064;4.580;2022-11-15T05:26:31;11.00;99.90
75262;DHT22;63859;51.064;4.580;2022-11-15T05:28:58;11.00;99.90
75262;DHT22;63859;51.064;4.580;2022-11-15T05:31:25;11.00;99.90
75262;DHT22;63859;51.064;4.580;2022-11-15T05:33:51;11.00;99.90
75262;DHT22;63859;51.064;4.580;2022-11-15T05:36:42;10.90;99.90
75262;DHT22;63859;51.064;4.580;2022-11-15T05:39:08;10.90;99.90
75262;DHT22;63859;51.064;4.580;2022-11-15T05:41:39;10.90;99.90
75262;DHT22;63859;51.064;4.580;2022-11-15T05:44:07;10.90;99.90
75262;DHT22;63859;51.064;4.580;2022-11-15T05:46:35;10.90;99.90
75262;DHT22;63859;51.064;4.580;2022-11-15T05:49:02;10.90;99.90
75262;DHT22;63859;51.064;4.580;2022-11-15T05:51:30;10.80;99.90
75262;DHT22;63859;51.064;4.580;2022-11-15T05:53:56;10.80;99.90
75262;DHT22;63859;51.064;4.580;2022-11-15T05:56:25;10.80;99.90
75262;DHT22;63859;51.064;4.580;2022-11-15T05:58:55;10.80;99.90
75262;DHT22;63859;51.064;4.580;2022-11-15T06:01:22;10.70;99.90
75262;DHT22;63859;51.064;4.580;2022-11-15T06:03:48;10.70;99.90
75262;DHT22;63859;51.064;4.580;2022-11-15T06:06:14;10.70;99.90
75262;DHT22;63859;51.064;4.580;2022-11-15T06:08:39;10.70;99.90
75262;DHT22;63859;51.064;4.580;2022-11-15T06:11:06;10.70;99.90
75262;DHT22;63859;51.064;4.580;2022-11-15T06:13:32;10.70;99.90
75262;DHT22;63859;51.064;4.580;2022-11-15T06:15:58;10.70;99.90
75262;DHT22;63859;51.064;4.580;2022-11-15T06:18:24;10.60;99.90
75262;DHT22;63859;51.064;4.580;2022-11-15T06:20:49;10.60;99.90
75262;DHT22;63859;51.064;4.580;2022-11-15T06:23:15;10.50;99.90
75262;DHT22;63859;51.064;4.580;2022-11-15T06:25:40;10.70;99.90
75262;DHT22;63859;51.064;4.580;2022-11-15T06:28:06;10.60;99.90
75262;DHT22;63859;51.064;4.580;2022-11-15T06:30:32;10.50;99.90
75262;DHT22;63859;51.064;4.580;2022-11-15T06:33:02;10.50;99.90
75262;DHT22;63859;51.064;4.580;2022-11-15T06:35:28;10.50;99.90
75262;DHT22;63859;51.064;4.580;2022-11-15T06:37:54;10.50;99.90
75262;DHT22;63859;51.064;4.580;2022-11-15T06:40:20;10.50;99.90
75262;DHT22;63859;51.064;4.580;2022-11-15T06:42:45;10.50;99.90
75262;DHT22;63859;51.064;4.580;2022-11-15T06:45:11;10.40;99.90
75262;DHT22;63859;51.064;4.580;2022-11-15T06:47:47;10.50;99.90
75262;DHT22;63859;51.064;4.580;2022-11-15T06:50:12;10.40;99.90
75262;DHT22;63859;51.064;4.580;2022-11-15T06:52:38;10.40;99.90
75262;DHT22;63859;51.064;4.580;2022-11-15T06:55:04;10.40;99.90
75262;DHT22;63859;51.064;4.580;2022-11-15T06:57:30;10.40;99.90
75262;DHT22;63859;51.064;4.580;2022-11-15T06:59:55;10.30;99.90
75262;DHT22;63859;51.064;4.580;2022-11-15T07:02:21;10.30;99.90
75262;DHT22;63859;51.064;4.580;2022-11-15T07:04:47;10.30;99.90
75262;DHT22;63859;51.064;4.580;2022-11-15T07:07:12;10.20;99.90
75262;DHT22;63859;51.064;4.580;2022-11-15T07:09:38;10.20;99.90
75262;DHT22;63859;51.064;4.580;2022-11-15T07:12:03;10.20;99.90
75262;DHT22;63859;51.064;4.580;2022-11-15T07:14:29;10.10;99.90
75262;DHT22;63859;51.064;4.580;2022-11-15T07:16:55;10.10;99.90
75262;DHT22;63859;51.064;4.580;2022-11-15T07:19:20;10.00;99.90
75262;DHT22;63859;51.064;4.580;2022-11-15T07:21:46;10.00;99.90
75262;DHT22;63859;51.064;4.580;2022-11-15T07:24:12;10.10;99.90
75262;DHT22;63859;51.064;4.580;2022-11-15T07:26:37;10.00;99.90
75262;DHT22;63859;51.064;4.580;2022-11-15T07:29:03;10.00;99.90
75262;DHT22;63859;51.064;4.580;2022-11-15T07:31:28;9.90;99.90
75262;DHT22;63859;51.064;4.580;2022-11-15T07:33:54;10.00;99.90
75262;DHT22;63859;51.064;4.580;2022-11-15T07:36:19;9.90;99.90
75262;DHT22;63859;51.064;4.580;2022-11-15T07:38:45;9.90;99.90
75262;DHT22;63859;51.064;4.580;2022-11-15T07:41:11;9.90;99.90
75262;DHT22;63859;51.064;4.580;2022-11-15T07:43:36;9.80;99.90
75262;DHT22;63859;51.064;4.580;2022-11-15T07:46:07;9.90;99.90
75262;DHT22;63859;51.064;4.580;2022-11-15T07:48:35;9.90;99.90
75262;DHT22;63859;51.064;4.580;2022-11-15T07:51:00;9.80;99.90
75262;DHT22;63859;51.064;4.580;2022-11-15T07:53:26;9.90;99.90
75262;DHT22;63859;51.064;4.580;2022-11-15T07:55:52;9.90;99.90
75262;DHT22;63859;51.064;4.580;2022-11-15T07:58:19;9.90;99.90
75262;DHT22;63859;51.064;4.580;2022-11-15T08:00:44;9.90;99.90
75262;DHT22;63859;51.064;4.580;2022-11-15T08:03:15;9.90;99.90
75262;DHT22;63859;51.064;4.580;2022-11-15T08:05:41;9.90;99.90
75262;DHT22;63859;51.064;4.580;2022-11-15T08:08:09;9.90;99.90
75262;DHT22;63859;51.064;4.580;2022-11-15T08:11:07;9.90;99.90
75262;DHT22;63859;51.064;4.580;2022-11-15T08:13:32;9.90;99.90
75262;DHT22;63859;51.064;4.580;2022-11-15T08:15:59;9.90;99.90
75262;DHT22;63859;51.064;4.580;2022-11-15T08:18:25;9.90;99.90
75262;DHT22;63859;51.064;4.580;2022-11-15T08:20:51;9.90;99.90
75262;DHT22;63859;51.064;4.580;2022-11-15T08:23:17;9.90;99.90
75262;DHT22;63859;51.064;4.580;2022-11-15T08:25:42;10.00;99.90
75262;DHT22;63859;51.064;4.580;2022-11-15T08:28:10;10.00;99.90
75262;DHT22;63859;51.064;4.580;2022-11-15T08:30:38;10.00;99.90
75262;DHT22;63859;51.064;4.580;2022-11-15T08:33:04;10.00;99.90
75262;DHT22;63859;51.064;4.580;2022-11-15T08:35:30;10.10;99.90
75262;DHT22;63859;51.064;4.580;2022-11-15T08:37:55;10.10;99.90
75262;DHT22;63859;51.064;4.580;2022-11-15T08:40:21;10.20;99.90
75262;DHT22;63859;51.064;4.580;2022-11-15T08:42:47;10.20;99.90
75262;DHT22;63859;51.064;4.580;2022-11-15T08:45:14;10.20;99.90
75262;DHT22;63859;51.064;4.580;2022-11-15T08:47:39;10.20;99.90
75262;DHT22;63859;51.064;4.580;2022-11-15T08:50:05;10.30;99.90
75262;DHT22;63859;51.064;4.580;2022-11-15T08:52:31;10.30;99.90
75262;DHT22;63859;51.064;4.580;2022-11-15T08:54:57;10.30;99.90
75262;DHT22;63859;51.064;4.580;2022-11-15T08:57:23;10.40;99.90
75262;DHT22;63859;51.064;4.580;2022-11-15T08:59:49;10.40;99.90
75262;DHT22;63859;51.064;4.580;2022-11-15T09:02:15;10.40;99.90
75262;DHT22;63859;51.064;4.580;2022-11-15T09:04:42;10.50;99.90
75262;DHT22;63859;51.064;4.580;2022-11-15T09:07:10;10.50;99.90
75262;DHT22;63859;51.064;4.580;2022-11-15T09:09:36;10.50;99.90
75262;DHT22;63859;51.064;4.580;2022-11-15T09:12:02;10.50;99.90
75262;DHT22;63859;51.064;4.580;2022-11-15T09:14:28;10.50;99.90
75262;DHT22;63859;51.064;4.580;2022-11-15T09:16:53;10.60;99.90
75262;DHT22;63859;51.064;4.580;2022-11-15T09:19:19;10.60;99.90
75262;DHT22;63859;51.064;4.580;2022-11-15T09:21:45;10.60;99.90
75262;DHT22;63859;51.064;4.580;2022-11-15T09:24:10;10.70;99.90
75262;DHT22;63859;51.064;4.580;2022-11-15T09:26:36;10.70;99.90
75262;DHT22;63859;51.064;4.580;2022-11-15T09:29:02;10.80;99.90
75262;DHT22;63859;51.064;4.580;2022-11-15T09:31:28;10.90;99.90
75262;DHT22;63859;51.064;4.580;2022-11-15T09:33:55;10.90;99.90
75262;DHT22;63859;51.064;4.580;2022-11-15T09:36:20;11.00;99.90
75262;DHT22;63859;51.064;4.580;2022-11-15T09:38:46;11.00;99.90
75262;DHT22;63859;51.064;4.580;2022-11-15T09:49:18;11.20;99.90
75262;DHT22;63859;51.064;4.580;2022-11-15T09:51:47;11.30;99.90
75262;DHT22;63859;51.064;4.580;2022-11-15T09:54:23;11.30;99.90
75262;DHT22;63859;51.064;4.580;2022-11-15T09:56:51;11.40;99.50
75262;DHT22;63859;51.064;4.580;2022-11-15T10:02:36;11.50;99.40
75262;DHT22;63859;51.064;4.580;2022-11-15T10:05:11;11.50;99.00
75262;DHT22;63859;51.064;4.580;2022-11-15T10:08:02;11.50;98.90
75262;DHT22;63859;51.064;4.580;2022-11-15T10:13:00;11.50;98.60
75262;DHT22;63859;51.064;4.580;2022-11-15T10:15:25;11.60;98.50
75262;DHT22;63859;51.064;4.580;2022-11-15T10:18:17;11.60;98.40
75262;DHT22;63859;51.064;4.580;2022-11-15T10:21:15;11.70;98.00
75262;DHT22;63859;51.064;4.580;2022-11-15T10:23:40;11.70;97.60
75262;DHT22;63859;51.064;4.580;2022-11-15T10:26:11;11.70;97.60
75262;DHT22;63859;51.064;4.580;2022-11-15T10:28:38;11.70;97.50
75262;DHT22;63859;51.064;4.580;2022-11-15T10:31:24;11.80;97.50
75262;DHT22;63859;51.064;4.580;2022-11-15T10:33:51;11.80;97.30
75262;DHT22;63859;51.064;4.580;2022-11-15T10:36:23;11.90;97.10
75262;DHT22;63859;51.064;4.580;2022-11-15T10:38:54;11.90;97.20
75262;DHT22;63859;51.064;4.580;2022-11-15T10:46:38;11.90;96.40
75262;DHT22;63859;51.064;4.580;2022-11-15T10:49:23;12.00;96.60
75262;DHT22;63859;51.064;4.580;2022-11-15T10:57:19;12.10;96.50
75262;DHT22;63859;51.064;4.580;2022-11-15T10:59:49;12.10;96.20
75262;DHT22;63859;51.064;4.580;2022-11-15T11:02:45;12.10;96.20
75262;DHT22;63859;51.064;4.580;2022-11-15T11:08:04;12.10;96.30
75262;DHT22;63859;51.064;4.580;2022-11-15T11:10:30;12.10;96.00
75262;DHT22;63859;51.064;4.580;2022-11-15T11:13:13;12.20;96.30
75262;DHT22;63859;51.064;4.580;2022-11-15T11:15:39;12.20;95.90
75262;DHT22;63859;51.064;4.580;2022-11-15T11:18:20;12.20;95.70
75262;DHT22;63859;51.064;4.580;2022-11-15T11:20:57;12.20;95.70
75262;DHT22;63859;51.064;4.580;2022-11-15T11:23:38;12.20;95.80
75262;DHT22;63859;51.064;4.580;2022-11-15T11:28:59;12.20;95.60
75262;DHT22;63859;51.064;4.580;2022-11-15T11:48:02;12.30;95.90
75262;DHT22;63859;51.064;4.580;2022-11-15T11:50:30;12.30;95.60
75262;DHT22;63859;51.064;4.580;2022-11-15T11:55:38;12.30;95.70
75262;DHT22;63859;51.064;4.580;2022-11-15T11:58:19;12.30;95.80
75262;DHT22;63859;51.064;4.580;2022-11-15T12:00:57;12.40;95.70
75262;DHT22;63859;51.064;4.580;2022-11-15T12:03:46;12.40;95.80
75262;DHT22;63859;51.064;4.580;2022-11-15T12:11:42;12.40;95.60
75262;DHT22;63859;51.064;4.580;2022-11-15T12:14:17;12.40;95.70
75262;DHT22;63859;51.064;4.580;2022-11-15T12:16:46;12.40;95.80
75262;DHT22;63859;51.064;4.580;2022-11-15T12:19:12;12.40;95.70
75262;DHT22;63859;51.064;4.580;2022-11-15T12:24:41;12.40;95.70
75262;DHT22;63859;51.064;4.580;2022-11-15T12:29:49;12.40;95.90
75262;DHT22;63859;51.064;4.580;2022-11-15T12:32:28;12.50;95.70
75262;DHT22;63859;51.064;4.580;2022-11-15T12:34:55;12.50;95.70
75262;DHT22;63859;51.064;4.580;2022-11-15T12:40:26;12.60;96.00
75262;DHT22;63859;51.064;4.580;2022-11-15T12:45:45;12.60;95.80
75262;DHT22;63859;51.064;4.580;2022-11-15T13:04:28;12.70;96.10
75262;DHT22;63859;51.064;4.580;2022-11-15T13:06:57;12.60;96.00
75262;DHT22;63859;51.064;4.580;2022-11-15T13:14:58;12.80;96.30
75262;DHT22;63859;51.064;4.580;2022-11-15T13:22:25;12.90;96.50
75262;DHT22;63859;51.064;4.580;2022-11-15T13:33:34;13.00;96.40
75262;DHT22;63859;51.064;4.580;2022-11-15T13:36:03;13.00;96.50
75262;DHT22;63859;51.064;4.580;2022-11-15T13:38:33;13.00;96.70
75262;DHT22;63859;51.064;4.580;2022-11-15T13:41:11;13.00;96.50
75262;DHT22;63859;51.064;4.580;2022-11-15T13:43:39;13.00;96.60
75262;DHT22;63859;51.064;4.580;2022-11-15T13:46:10;13.00;96.70
75262;DHT22;63859;51.064;4.580;2022-11-15T13:48:37;13.00;96.90
75262;DHT22;63859;51.064;4.580;2022-11-15T13:51:05;12.90;97.00
75262;DHT22;63859;51.064;4.580;2022-11-15T13:53:33;13.00;97.00
75262;DHT22;63859;51.064;4.580;2022-11-15T13:56:01;12.90;97.00
75262;DHT22;63859;51.064;4.580;2022-11-15T13:58:29;12.90;97.10
75262;DHT22;63859;51.064;4.580;2022-11-15T14:01:03;12.90;97.10
75262;DHT22;63859;51.064;4.580;2022-11-15T14:03:40;12.80;97.10
75262;DHT22;63859;51.064;4.580;2022-11-15T14:06:14;12.90;97.20
75262;DHT22;63859;51.064;4.580;2022-11-15T14:08:57;12.90;97.30
75262;DHT22;63859;51.064;4.580;2022-11-15T14:11:23;12.90;97.30
75262;DHT22;63859;51.064;4.580;2022-11-15T14:16:40;12.90;97.40
75262;DHT22;63859;51.064;4.580;2022-11-15T14:19:51;13.00;97.50
75262;DHT22;63859;51.064;4.580;2022-11-15T14:24:39;13.00;97.70
75262;DHT22;63859;51.064;4.580;2022-11-15T14:27:21;12.90;97.80
75262;DHT22;63859;51.064;4.580;2022-11-15T14:29:48;13.00;97.80
75262;DHT22;63859;51.064;4.580;2022-11-15T14:32:25;13.00;97.90
75262;DHT22;63859;51.064;4.580;2022-11-15T14:34:57;13.00;98.10
75262;DHT22;63859;51.064;4.580;2022-11-15T14:37:29;12.90;97.90
75262;DHT22;63859;51.064;4.580;2022-11-15T14:39:58;13.00;98.40
75262;DHT22;63859;51.064;4.580;2022-11-15T14:42:24;13.00;98.50
75262;DHT22;63859;51.064;4.580;2022-11-15T14:44:51;12.90;98.80
75262;DHT22;63859;51.064;4.580;2022-11-15T14:47:17;12.90;98.80
75262;DHT22;63859;51.064;4.580;2022-11-15T14:49:43;12.90;99.30
75262;DHT22;63859;51.064;4.580;2022-11-15T14:52:35;12.80;99.70
75262;DHT22;63859;51.064;4.580;2022-11-15T14:55:03;12.80;99.80
75262;DHT22;63859;51.064;4.580;2022-11-15T14:57:29;12.70;99.90
75262;DHT22;63859;51.064;4.580;2022-11-15T14:59:55;12.70;99.90
75262;DHT22;63859;51.064;4.580;2022-11-15T15:02:26;12.70;99.90
75262;DHT22;63859;51.064;4.580;2022-11-15T15:04:53;12.70;99.90
75262;DHT22;63859;51.064;4.580;2022-11-15T15:07:19;12.60;99.90
75262;DHT22;63859;51.064;4.580;2022-11-15T15:09:45;12.60;99.90
75262;DHT22;63859;51.064;4.580;2022-11-15T15:12:22;12.60;99.90
75262;DHT22;63859;51.064;4.580;2022-11-15T15:14:49;12.60;99.90
75262;DHT22;63859;51.064;4.580;2022-11-15T15:17:16;12.50;99.90
75262;DHT22;63859;51.064;4.580;2022-11-15T15:19:42;12.50;99.90
75262;DHT22;63859;51.064;4.580;2022-11-15T15:22:19;12.50;99.90
75262;DHT22;63859;51.064;4.580;2022-11-15T15:24:47;12.50;99.90
75262;DHT22;63859;51.064;4.580;2022-11-15T15:27:13;12.50;99.90
75262;DHT22;63859;51.064;4.580;2022-11-15T15:29:40;12.40;99.90
75262;DHT22;63859;51.064;4.580;2022-11-15T15:32:06;12.40;99.90
75262;DHT22;63859;51.064;4.580;2022-11-15T15:34:31;12.40;99.90
75262;DHT22;63859;51.064;4.580;2022-11-15T15:39:33;12.40;99.90
75262;DHT22;63859;51.064;4.580;2022-11-15T15:41:59;12.40;99.90
75262;DHT22;63859;51.064;4.580;2022-11-15T15:44:24;12.30;99.90
75262;DHT22;63859;51.064;4.580;2022-11-15T15:46:50;12.30;99.90
75262;DHT22;63859;51.064;4.580;2022-11-15T15:49:15;12.30;99.90
75262;DHT22;63859;51.064;4.580;2022-11-15T15:51:41;12.30;99.90
75262;DHT22;63859;51.064;4.580;2022-11-15T15:54:06;12.30;99.90
75262;DHT22;63859;51.064;4.580;2022-11-15T15:56:32;12.30;99.90
75262;DHT22;63859;51.064;4.580;2022-11-15T15:58:58;12.20;99.90
75262;DHT22;63859;51.064;4.580;2022-11-15T16:01:23;12.20;99.90
75262;DHT22;63859;51.064;4.580;2022-11-15T16:03:50;12.20;99.90
75262;DHT22;63859;51.064;4.580;2022-11-15T16:06:35;12.10;99.90
75262;DHT22;63859;51.064;4.580;2022-11-15T16:09:03;12.10;99.90
75262;DHT22;63859;51.064;4.580;2022-11-15T16:11:28;12.10;99.90
75262;DHT22;63859;51.064;4.580;2022-11-15T16:13:54;12.10;99.90
75262;DHT22;63859;51.064;4.580;2022-11-15T16:16:21;12.10;99.90
75262;DHT22;63859;51.064;4.580;2022-11-15T16:18:47;12.00;99.90
75262;DHT22;63859;51.064;4.580;2022-11-15T16:21:13;12.00;99.90
75262;DHT22;63859;51.064;4.580;2022-11-15T16:23:38;12.00;99.90
75262;DHT22;63859;51.064;4.580;2022-11-15T16:26:17;12.00;99.90
75262;DHT22;63859;51.064;4.580;2022-11-15T16:28:44;12.00;99.90
75262;DHT22;63859;51.064;4.580;2022-11-15T16:31:11;11.90;99.90
75262;DHT22;63859;51.064;4.580;2022-11-15T16:33:38;11.90;99.90
75262;DHT22;63859;51.064;4.580;2022-11-15T16:36:06;11.90;99.90
75262;DHT22;63859;51.064;4.580;2022-11-15T16:38:37;11.90;99.90
75262;DHT22;63859;51.064;4.580;2022-11-15T16:41:04;11.90;99.90
75262;DHT22;63859;51.064;4.580;2022-11-15T16:43:30;11.90;99.90
75262;DHT22;63859;51.064;4.580;2022-11-15T16:45:55;11.90;99.90
75262;DHT22;63859;51.064;4.580;2022-11-15T16:48:26;11.90;99.90
75262;DHT22;63859;51.064;4.580;2022-11-15T16:50:59;11.90;99.90
75262;DHT22;63859;51.064;4.580;2022-11-15T16:53:26;11.90;99.90
75262;DHT22;63859;51.064;4.580;2022-11-15T16:55:53;11.80;99.90
75262;DHT22;63859;51.064;4.580;2022-11-15T16:58:19;11.80;99.90
75262;DHT22;63859;51.064;4.580;2022-11-15T17:00:45;11.80;99.90
75262;DHT22;63859;51.064;4.580;2022-11-15T17:03:14;11.80;99.90
75262;DHT22;63859;51.064;4.580;2022-11-15T17:05:40;11.80;99.90
75262;DHT22;63859;51.064;4.580;2022-11-15T17:08:07;11.80;99.90
75262;DHT22;63859;51.064;4.580;2022-11-15T17:10:33;11.80;99.90
75262;DHT22;63859;51.064;4.580;2022-11-15T17:12:58;11.80;99.90
75262;DHT22;63859;51.064;4.580;2022-11-15T17:15:24;11.80;99.90
75262;DHT22;63859;51.064;4.580;2022-11-15T17:17:51;11.80;99.90
75262;DHT22;63859;51.064;4.580;2022-11-15T17:20:19;11.80;99.90
75262;DHT22;63859;51.064;4.580;2022-11-15T17:22:45;11.80;99.90
75262;DHT22;63859;51.064;4.580;2022-11-15T17:25:11;11.80;99.90
75262;DHT22;63859;51.064;4.580;2022-11-15T17:27:37;11.80;99.90
75262;DHT22;63859;51.064;4.580;2022-11-15T17:30:04;11.80;99.90
75262;DHT22;63859;51.064;4.580;2022-11-15T17:32:30;11.80;99.90
75262;DHT22;63859;51.064;4.580;2022-11-15T17:34:55;11.80;99.90
75262;DHT22;63859;51.064;4.580;2022-11-15T17:37:21;11.80;99.90
75262;DHT22;63859;51.064;4.580;2022-11-15T17:39:46;11.80;99.90
75262;DHT22;63859;51.064;4.580;2022-11-15T17:42:12;11.80;99.90
75262;DHT22;63859;51.064;4.580;2022-11-15T17:44:38;11.80;99.90
75262;DHT22;63859;51.064;4.580;2022-11-15T17:47:03;11.80;99.90
75262;DHT22;63859;51.064;4.580;2022-11-15T17:49:29;11.80;99.90
75262;DHT22;63859;51.064;4.580;2022-11-15T17:51:55;11.80;99.90
75262;DHT22;63859;51.064;4.580;2022-11-15T17:54:20;11.80;99.90
75262;DHT22;63859;51.064;4.580;2022-11-15T17:56:46;11.80;99.90
75262;DHT22;63859;51.064;4.580;2022-11-15T17:59:11;11.80;99.90
75262;DHT22;63859;51.064;4.580;2022-11-15T18:01:37;11.80;99.90
75262;DHT22;63859;51.064;4.580;2022-11-15T18:04:06;11.80;99.90